Richland, Texas
Current Conditions -  °F | °C
As of 12:53 AM on Monday 24 Nov 2014 (Local Time) from KCRS Reporting Station
Clear Clear  
Wind Chill: 50°   Ceiling: Unl
Heat Index: 50°   Visibility: 10mi
Dew Point: 38°   Wind: 13mph
Humidity: 63%   Direction: 330°NNW
Pressure: 29.85"   Gusts: 22mph
Location:  31.93°N, 96.43°W
Report Text: KCRS 240653Z AUTO 33011G19KT 10SM CLR 10/03 A2985 RMK AO2 SLP107 T01000033
Loading
Personal Weather Stations






























Interactive Weather Map New forecast layout! Learn more

10-Day Weather Forecast

Advertisements
Track Severe Weather on mobile